sensor_id;sensor_type;location;lat;lon;timestamp;temperature;humidity
19522;DHT22;9905;52.126;5.596;2022-12-29T00:01:33;11.20;99.90
19522;DHT22;9905;52.126;5.596;2022-12-29T00:04:00;11.20;99.90
19522;DHT22;9905;52.126;5.596;2022-12-29T00:06:27;11.20;99.90
19522;DHT22;9905;52.126;5.596;2022-12-29T00:08:54;11.40;99.90
19522;DHT22;9905;52.126;5.596;2022-12-29T00:11:24;11.40;99.90
19522;DHT22;9905;52.126;5.596;2022-12-29T00:13:52;11.40;99.90
19522;DHT22;9905;52.126;5.596;2022-12-29T00:16:37;11.40;99.90
19522;DHT22;9905;52.126;5.596;2022-12-29T00:19:04;11.40;99.90
19522;DHT22;9905;52.126;5.596;2022-12-29T00:21:31;11.40;99.90
19522;DHT22;9905;52.126;5.596;2022-12-29T00:24:17;11.40;99.90
19522;DHT22;9905;52.126;5.596;2022-12-29T00:27:11;11.40;99.90
19522;DHT22;9905;52.126;5.596;2022-12-29T00:29:56;11.50;99.90
19522;DHT22;9905;52.126;5.596;2022-12-29T00:32:40;11.50;99.90
19522;DHT22;9905;52.126;5.596;2022-12-29T00:35:27;11.40;99.90
19522;DHT22;9905;52.126;5.596;2022-12-29T00:37:56;11.40;99.90
19522;DHT22;9905;52.126;5.596;2022-12-29T00:40:41;11.50;99.90
19522;DHT22;9905;52.126;5.596;2022-12-29T00:43:27;11.50;99.90
19522;DHT22;9905;52.126;5.596;2022-12-29T00:46:11;11.50;99.90
19522;DHT22;9905;52.126;5.596;2022-12-29T00:48:38;11.40;99.90
19522;DHT22;9905;52.126;5.596;2022-12-29T00:51:22;11.50;99.90
19522;DHT22;9905;52.126;5.596;2022-12-29T00:53:49;11.50;99.90
19522;DHT22;9905;52.126;5.596;2022-12-29T00:56:16;11.50;99.90
19522;DHT22;9905;52.126;5.596;2022-12-29T00:58:44;11.40;99.90
19522;DHT22;9905;52.126;5.596;2022-12-29T01:01:11;11.40;99.90
19522;DHT22;9905;52.126;5.596;2022-12-29T01:03:38;11.40;99.90
19522;DHT22;9905;52.126;5.596;2022-12-29T01:06:07;11.40;99.90
19522;DHT22;9905;52.126;5.596;2022-12-29T01:08:35;11.40;99.90
19522;DHT22;9905;52.126;5.596;2022-12-29T01:11:03;11.40;99.90
19522;DHT22;9905;52.126;5.596;2022-12-29T01:13:30;11.40;99.90
19522;DHT22;9905;52.126;5.596;2022-12-29T01:15:58;11.40;99.90
19522;DHT22;9905;52.126;5.596;2022-12-29T01:18:25;11.40;99.90
19522;DHT22;9905;52.126;5.596;2022-12-29T01:20:58;11.40;99.90
19522;DHT22;9905;52.126;5.596;2022-12-29T01:23:25;11.40;99.90
19522;DHT22;9905;52.126;5.596;2022-12-29T01:25:52;11.40;99.90
19522;DHT22;9905;52.126;5.596;2022-12-29T01:28:18;11.30;99.90
19522;DHT22;9905;52.126;5.596;2022-12-29T01:30:45;11.30;99.90
19522;DHT22;9905;52.126;5.596;2022-12-29T01:33:13;11.20;99.90
19522;DHT22;9905;52.126;5.596;2022-12-29T01:35:40;11.20;99.90
19522;DHT22;9905;52.126;5.596;2022-12-29T01:38:07;11.10;99.90
19522;DHT22;9905;52.126;5.596;2022-12-29T01:40:34;11.10;99.90
19522;DHT22;9905;52.126;5.596;2022-12-29T01:43:11;11.00;99.90
19522;DHT22;9905;52.126;5.596;2022-12-29T01:45:41;11.00;99.90
19522;DHT22;9905;52.126;5.596;2022-12-29T01:48:10;11.00;99.90
19522;DHT22;9905;52.126;5.596;2022-12-29T01:50:41;11.00;99.90
19522;DHT22;9905;52.126;5.596;2022-12-29T01:53:12;11.00;99.90
19522;DHT22;9905;52.126;5.596;2022-12-29T01:55:43;11.00;99.90
19522;DHT22;9905;52.126;5.596;2022-12-29T01:58:11;11.00;99.90
19522;DHT22;9905;52.126;5.596;2022-12-29T02:00:39;11.00;99.90
19522;DHT22;9905;52.126;5.596;2022-12-29T02:03:06;11.00;99.90
19522;DHT22;9905;52.126;5.596;2022-12-29T02:05:40;11.00;99.90
19522;DHT22;9905;52.126;5.596;2022-12-29T02:08:09;11.00;99.90
19522;DHT22;9905;52.126;5.596;2022-12-29T02:10:37;11.00;99.90
19522;DHT22;9905;52.126;5.596;2022-12-29T02:13:04;11.00;99.90
19522;DHT22;9905;52.126;5.596;2022-12-29T02:15:43;11.00;99.90
19522;DHT22;9905;52.126;5.596;2022-12-29T02:18:25;10.90;99.90
19522;DHT22;9905;52.126;5.596;2022-12-29T02:21:27;10.90;99.90
19522;DHT22;9905;52.126;5.596;2022-12-29T02:24:14;10.90;99.90
19522;DHT22;9905;52.126;5.596;2022-12-29T02:27:01;10.80;99.90
19522;DHT22;9905;52.126;5.596;2022-12-29T02:29:43;10.90;99.90
19522;DHT22;9905;52.126;5.596;2022-12-29T02:32:25;10.90;99.90
19522;DHT22;9905;52.126;5.596;2022-12-29T02:35:01;10.80;99.90
19522;DHT22;9905;52.126;5.596;2022-12-29T02:37:38;10.80;99.90
19522;DHT22;9905;52.126;5.596;2022-12-29T02:40:14;10.90;99.90
19522;DHT22;9905;52.126;5.596;2022-12-29T02:42:48;10.90;99.90
19522;DHT22;9905;52.126;5.596;2022-12-29T02:45:21;10.80;99.90
19522;DHT22;9905;52.126;5.596;2022-12-29T02:47:56;10.80;99.90
19522;DHT22;9905;52.126;5.596;2022-12-29T02:50:27;10.80;99.90
19522;DHT22;9905;52.126;5.596;2022-12-29T02:52:59;10.90;99.90
19522;DHT22;9905;52.126;5.596;2022-12-29T02:55:27;10.90;99.90
19522;DHT22;9905;52.126;5.596;2022-12-29T02:58:15;11.00;99.90
19522;DHT22;9905;52.126;5.596;2022-12-29T03:00:56;10.90;99.90
19522;DHT22;9905;52.126;5.596;2022-12-29T03:03:37;10.90;99.90
19522;DHT22;9905;52.126;5.596;2022-12-29T03:06:16;10.90;99.90
19522;DHT22;9905;52.126;5.596;2022-12-29T03:08:51;10.90;99.90
19522;DHT22;9905;52.126;5.596;2022-12-29T03:11:24;10.90;99.90
19522;DHT22;9905;52.126;5.596;2022-12-29T03:14:16;10.90;99.90
19522;DHT22;9905;52.126;5.596;2022-12-29T03:17:05;10.90;99.90
19522;DHT22;9905;52.126;5.596;2022-12-29T03:19:39;10.80;99.90
19522;DHT22;9905;52.126;5.596;2022-12-29T03:22:09;10.80;99.90
19522;DHT22;9905;52.126;5.596;2022-12-29T03:24:59;10.80;99.90
19522;DHT22;9905;52.126;5.596;2022-12-29T03:27:33;10.70;99.90
19522;DHT22;9905;52.126;5.596;2022-12-29T03:30:04;10.70;99.90
19522;DHT22;9905;52.126;5.596;2022-12-29T03:32:33;10.70;99.90
19522;DHT22;9905;52.126;5.596;2022-12-29T03:35:04;10.70;99.90
19522;DHT22;9905;52.126;5.596;2022-12-29T03:37:35;10.70;99.90
19522;DHT22;9905;52.126;5.596;2022-12-29T03:40:05;10.70;99.90
19522;DHT22;9905;52.126;5.596;2022-12-29T03:42:35;10.60;99.90
19522;DHT22;9905;52.126;5.596;2022-12-29T03:45:04;10.60;99.90
19522;DHT22;9905;52.126;5.596;2022-12-29T03:47:32;10.50;99.90
19522;DHT22;9905;52.126;5.596;2022-12-29T03:50:00;10.50;99.90
19522;DHT22;9905;52.126;5.596;2022-12-29T03:52:28;10.50;99.90
19522;DHT22;9905;52.126;5.596;2022-12-29T03:54:55;10.50;99.90
19522;DHT22;9905;52.126;5.596;2022-12-29T03:57:21;10.50;99.90
19522;DHT22;9905;52.126;5.596;2022-12-29T03:59:48;10.40;99.90
19522;DHT22;9905;52.126;5.596;2022-12-29T04:02:15;10.40;99.90
19522;DHT22;9905;52.126;5.596;2022-12-29T04:04:41;10.40;99.90
19522;DHT22;9905;52.126;5.596;2022-12-29T04:07:08;10.40;99.90
19522;DHT22;9905;52.126;5.596;2022-12-29T04:09:36;10.40;99.90
19522;DHT22;9905;52.126;5.596;2022-12-29T04:12:03;10.40;99.90
19522;DHT22;9905;52.126;5.596;2022-12-29T04:14:30;10.30;99.90
19522;DHT22;9905;52.126;5.596;2022-12-29T04:16:57;10.30;99.90
19522;DHT22;9905;52.126;5.596;2022-12-29T04:19:24;10.30;99.90
19522;DHT22;9905;52.126;5.596;2022-12-29T04:21:50;10.30;99.90
19522;DHT22;9905;52.126;5.596;2022-12-29T04:24:17;10.30;99.90
19522;DHT22;9905;52.126;5.596;2022-12-29T04:26:45;10.40;99.90
19522;DHT22;9905;52.126;5.596;2022-12-29T04:29:12;10.40;99.90
19522;DHT22;9905;52.126;5.596;2022-12-29T04:31:39;10.40;99.90
19522;DHT22;9905;52.126;5.596;2022-12-29T04:34:05;10.40;99.90
19522;DHT22;9905;52.126;5.596;2022-12-29T04:36:32;10.40;99.90
19522;DHT22;9905;52.126;5.596;2022-12-29T04:38:59;10.40;99.90
19522;DHT22;9905;52.126;5.596;2022-12-29T04:41:27;10.50;99.90
19522;DHT22;9905;52.126;5.596;2022-12-29T04:43:55;10.50;99.90
19522;DHT22;9905;52.126;5.596;2022-12-29T04:46:21;10.50;99.90
19522;DHT22;9905;52.126;5.596;2022-12-29T04:48:48;10.60;99.90
19522;DHT22;9905;52.126;5.596;2022-12-29T04:51:15;10.60;99.90
19522;DHT22;9905;52.126;5.596;2022-12-29T04:53:42;10.50;99.90
19522;DHT22;9905;52.126;5.596;2022-12-29T04:56:08;10.60;99.90
19522;DHT22;9905;52.126;5.596;2022-12-29T04:58:35;10.50;99.90
19522;DHT22;9905;52.126;5.596;2022-12-29T05:01:04;10.60;99.90
19522;DHT22;9905;52.126;5.596;2022-12-29T05:03:30;10.50;99.90
19522;DHT22;9905;52.126;5.596;2022-12-29T05:05:57;10.50;99.90
19522;DHT22;9905;52.126;5.596;2022-12-29T05:08:24;10.50;99.90
19522;DHT22;9905;52.126;5.596;2022-12-29T05:10:51;10.40;99.90
19522;DHT22;9905;52.126;5.596;2022-12-29T05:13:18;10.40;99.90
19522;DHT22;9905;52.126;5.596;2022-12-29T05:15:47;10.40;99.90
19522;DHT22;9905;52.126;5.596;2022-12-29T05:18:17;10.40;99.90
19522;DHT22;9905;52.126;5.596;2022-12-29T05:20:44;10.40;99.90
19522;DHT22;9905;52.126;5.596;2022-12-29T05:23:10;10.40;99.90
19522;DHT22;9905;52.126;5.596;2022-12-29T05:25:37;10.40;99.90
19522;DHT22;9905;52.126;5.596;2022-12-29T05:28:05;10.40;99.90
19522;DHT22;9905;52.126;5.596;2022-12-29T05:30:32;10.40;99.90
19522;DHT22;9905;52.126;5.596;2022-12-29T05:32:59;10.40;99.90
19522;DHT22;9905;52.126;5.596;2022-12-29T05:35:27;10.40;99.90
19522;DHT22;9905;52.126;5.596;2022-12-29T05:37:53;10.30;99.90
19522;DHT22;9905;52.126;5.596;2022-12-29T05:40:20;10.30;99.90
19522;DHT22;9905;52.126;5.596;2022-12-29T05:42:47;10.30;99.90
19522;DHT22;9905;52.126;5.596;2022-12-29T05:45:14;10.30;99.90
19522;DHT22;9905;52.126;5.596;2022-12-29T05:47:41;10.30;99.90
19522;DHT22;9905;52.126;5.596;2022-12-29T05:50:08;10.30;99.90
19522;DHT22;9905;52.126;5.596;2022-12-29T05:52:36;10.30;99.90
19522;DHT22;9905;52.126;5.596;2022-12-29T05:55:03;10.30;99.90
19522;DHT22;9905;52.126;5.596;2022-12-29T05:57:30;10.20;99.90
19522;DHT22;9905;52.126;5.596;2022-12-29T05:59:57;10.20;99.90
19522;DHT22;9905;52.126;5.596;2022-12-29T06:02:23;10.20;99.90
19522;DHT22;9905;52.126;5.596;2022-12-29T06:04:50;10.20;99.90
19522;DHT22;9905;52.126;5.596;2022-12-29T06:07:17;10.20;99.90
19522;DHT22;9905;52.126;5.596;2022-12-29T06:09:45;10.30;99.90
19522;DHT22;9905;52.126;5.596;2022-12-29T06:12:12;10.20;99.90
19522;DHT22;9905;52.126;5.596;2022-12-29T06:14:38;10.20;99.90
19522;DHT22;9905;52.126;5.596;2022-12-29T06:17:05;10.20;99.90
19522;DHT22;9905;52.126;5.596;2022-12-29T06:19:32;10.20;99.90
19522;DHT22;9905;52.126;5.596;2022-12-29T06:21:58;10.20;99.90
19522;DHT22;9905;52.126;5.596;2022-12-29T06:24:25;10.20;99.90
19522;DHT22;9905;52.126;5.596;2022-12-29T06:26:53;10.20;99.90
19522;DHT22;9905;52.126;5.596;2022-12-29T06:29:20;10.20;99.90
19522;DHT22;9905;52.126;5.596;2022-12-29T06:31:47;10.20;99.90
19522;DHT22;9905;52.126;5.596;2022-12-29T06:34:14;10.20;99.90
19522;DHT22;9905;52.126;5.596;2022-12-29T06:36:41;10.20;99.90
19522;DHT22;9905;52.126;5.596;2022-12-29T06:39:08;10.10;99.90
19522;DHT22;9905;52.126;5.596;2022-12-29T06:41:34;10.10;99.90
19522;DHT22;9905;52.126;5.596;2022-12-29T06:44:02;10.10;99.90
19522;DHT22;9905;52.126;5.596;2022-12-29T06:46:29;10.00;99.90
19522;DHT22;9905;52.126;5.596;2022-12-29T06:48:56;10.00;99.90
19522;DHT22;9905;52.126;5.596;2022-12-29T06:51:23;9.90;99.90
19522;DHT22;9905;52.126;5.596;2022-12-29T06:53:49;9.90;99.90
19522;DHT22;9905;52.126;5.596;2022-12-29T06:56:16;9.90;99.90
19522;DHT22;9905;52.126;5.596;2022-12-29T06:58:43;9.90;99.90
19522;DHT22;9905;52.126;5.596;2022-12-29T07:01:11;9.90;99.90
19522;DHT22;9905;52.126;5.596;2022-12-29T07:03:37;9.90;99.90
19522;DHT22;9905;52.126;5.596;2022-12-29T07:06:05;9.90;99.90
19522;DHT22;9905;52.126;5.596;2022-12-29T07:08:31;9.90;99.90
19522;DHT22;9905;52.126;5.596;2022-12-29T07:10:58;9.90;99.90
19522;DHT22;9905;52.126;5.596;2022-12-29T07:13:25;9.90;99.90
19522;DHT22;9905;52.126;5.596;2022-12-29T07:15:52;9.90;99.90
19522;DHT22;9905;52.126;5.596;2022-12-29T07:18:20;9.80;99.90
19522;DHT22;9905;52.126;5.596;2022-12-29T07:20:46;9.60;99.90
19522;DHT22;9905;52.126;5.596;2022-12-29T07:23:13;9.60;99.90
19522;DHT22;9905;52.126;5.596;2022-12-29T07:25:40;9.40;99.90
19522;DHT22;9905;52.126;5.596;2022-12-29T07:28:07;9.30;99.90
19522;DHT22;9905;52.126;5.596;2022-12-29T07:30:36;9.30;99.90
19522;DHT22;9905;52.126;5.596;2022-12-29T07:33:03;9.20;99.90
19522;DHT22;9905;52.126;5.596;2022-12-29T07:35:33;9.20;99.90
19522;DHT22;9905;52.126;5.596;2022-12-29T07:38:00;9.10;99.90
19522;DHT22;9905;52.126;5.596;2022-12-29T07:40:26;9.10;99.90
19522;DHT22;9905;52.126;5.596;2022-12-29T07:42:53;9.10;99.90
19522;DHT22;9905;52.126;5.596;2022-12-29T07:45:20;9.00;99.90
19522;DHT22;9905;52.126;5.596;2022-12-29T07:47:47;9.00;99.90
19522;DHT22;9905;52.126;5.596;2022-12-29T07:50:14;9.00;99.90
19522;DHT22;9905;52.126;5.596;2022-12-29T07:52:42;9.00;99.90
19522;DHT22;9905;52.126;5.596;2022-12-29T07:55:10;9.00;99.90
19522;DHT22;9905;52.126;5.596;2022-12-29T07:57:37;8.90;99.90
19522;DHT22;9905;52.126;5.596;2022-12-29T08:00:04;9.00;99.90
19522;DHT22;9905;52.126;5.596;2022-12-29T08:02:31;9.00;99.90
19522;DHT22;9905;52.126;5.596;2022-12-29T08:04:58;9.00;99.90
19522;DHT22;9905;52.126;5.596;2022-12-29T08:07:24;9.10;99.90
19522;DHT22;9905;52.126;5.596;2022-12-29T08:09:53;9.10;99.90
19522;DHT22;9905;52.126;5.596;2022-12-29T08:12:19;9.10;99.90
19522;DHT22;9905;52.126;5.596;2022-12-29T08:14:46;9.20;99.90
19522;DHT22;9905;52.126;5.596;2022-12-29T08:17:13;9.20;99.90
19522;DHT22;9905;52.126;5.596;2022-12-29T08:19:40;9.20;99.90
19522;DHT22;9905;52.126;5.596;2022-12-29T08:22:08;9.30;99.90
19522;DHT22;9905;52.126;5.596;2022-12-29T08:24:34;9.30;99.90
19522;DHT22;9905;52.126;5.596;2022-12-29T08:27:03;9.30;99.90
19522;DHT22;9905;52.126;5.596;2022-12-29T08:29:29;9.40;99.90
19522;DHT22;9905;52.126;5.596;2022-12-29T08:31:56;9.40;99.90
19522;DHT22;9905;52.126;5.596;2022-12-29T08:34:23;9.50;99.90
19522;DHT22;9905;52.126;5.596;2022-12-29T08:36:50;9.50;99.90
19522;DHT22;9905;52.126;5.596;2022-12-29T08:39:16;9.60;99.90
19522;DHT22;9905;52.126;5.596;2022-12-29T08:41:43;9.60;99.90
19522;DHT22;9905;52.126;5.596;2022-12-29T08:44:11;9.60;99.90
19522;DHT22;9905;52.126;5.596;2022-12-29T08:46:38;9.70;99.90
19522;DHT22;9905;52.126;5.596;2022-12-29T08:49:05;9.70;99.90
19522;DHT22;9905;52.126;5.596;2022-12-29T08:51:32;9.80;99.90
19522;DHT22;9905;52.126;5.596;2022-12-29T08:53:59;9.80;99.90
19522;DHT22;9905;52.126;5.596;2022-12-29T08:56:26;9.80;99.90
19522;DHT22;9905;52.126;5.596;2022-12-29T08:58:53;9.80;99.90
19522;DHT22;9905;52.126;5.596;2022-12-29T09:01:22;9.80;99.90
19522;DHT22;9905;52.126;5.596;2022-12-29T09:03:49;9.80;99.90
19522;DHT22;9905;52.126;5.596;2022-12-29T09:06:17;9.70;99.90
19522;DHT22;9905;52.126;5.596;2022-12-29T09:08:44;9.70;99.90
19522;DHT22;9905;52.126;5.596;2022-12-29T09:11:14;9.70;99.90
19522;DHT22;9905;52.126;5.596;2022-12-29T09:13:41;9.60;99.90
19522;DHT22;9905;52.126;5.596;2022-12-29T09:16:08;9.70;99.90
19522;DHT22;9905;52.126;5.596;2022-12-29T09:18:37;9.70;99.90
19522;DHT22;9905;52.126;5.596;2022-12-29T09:21:05;9.80;99.90
19522;DHT22;9905;52.126;5.596;2022-12-29T09:23:33;9.70;99.90
19522;DHT22;9905;52.126;5.596;2022-12-29T09:26:00;9.70;99.90
19522;DHT22;9905;52.126;5.596;2022-12-29T09:28:27;9.70;99.90
19522;DHT22;9905;52.126;5.596;2022-12-29T09:30:55;9.80;99.90
19522;DHT22;9905;52.126;5.596;2022-12-29T09:33:22;9.70;99.90
19522;DHT22;9905;52.126;5.596;2022-12-29T09:35:52;9.70;99.90
19522;DHT22;9905;52.126;5.596;2022-12-29T09:38:20;9.70;99.90
19522;DHT22;9905;52.126;5.596;2022-12-29T09:40:51;9.80;99.90
19522;DHT22;9905;52.126;5.596;2022-12-29T09:43:28;9.80;99.90
19522;DHT22;9905;52.126;5.596;2022-12-29T09:46:07;9.80;99.90
19522;DHT22;9905;52.126;5.596;2022-12-29T09:48:40;9.80;99.90
19522;DHT22;9905;52.126;5.596;2022-12-29T09:51:13;9.80;99.90
19522;DHT22;9905;52.126;5.596;2022-12-29T09:53:44;9.80;99.90
19522;DHT22;9905;52.126;5.596;2022-12-29T09:56:15;9.70;99.90
19522;DHT22;9905;52.126;5.596;2022-12-29T09:58:49;9.70;99.90
19522;DHT22;9905;52.126;5.596;2022-12-29T10:01:23;9.60;99.90
19522;DHT22;9905;52.126;5.596;2022-12-29T10:03:56;9.60;99.90
19522;DHT22;9905;52.126;5.596;2022-12-29T10:06:29;9.60;99.90
19522;DHT22;9905;52.126;5.596;2022-12-29T10:09:02;9.60;99.90
19522;DHT22;9905;52.126;5.596;2022-12-29T10:11:48;9.50;99.90
19522;DHT22;9905;52.126;5.596;2022-12-29T10:14:28;9.50;99.90
19522;DHT22;9905;52.126;5.596;2022-12-29T10:17:02;9.50;99.90
19522;DHT22;9905;52.126;5.596;2022-12-29T10:19:43;9.60;99.90
19522;DHT22;9905;52.126;5.596;2022-12-29T10:22:24;9.60;99.90
19522;DHT22;9905;52.126;5.596;2022-12-29T10:24:55;9.60;99.90
19522;DHT22;9905;52.126;5.596;2022-12-29T10:27:22;9.60;99.90
19522;DHT22;9905;52.126;5.596;2022-12-29T10:29:52;9.60;99.90
19522;DHT22;9905;52.126;5.596;2022-12-29T10:32:27;9.60;99.90
19522;DHT22;9905;52.126;5.596;2022-12-29T10:34:58;9.60;99.90
19522;DHT22;9905;52.126;5.596;2022-12-29T10:37:32;9.50;99.90
19522;DHT22;9905;52.126;5.596;2022-12-29T10:40:09;9.50;99.90
19522;DHT22;9905;52.126;5.596;2022-12-29T10:42:40;9.40;99.90
19522;DHT22;9905;52.126;5.596;2022-12-29T10:45:12;9.40;99.90
19522;DHT22;9905;52.126;5.596;2022-12-29T10:47:50;9.40;99.90
19522;DHT22;9905;52.126;5.596;2022-12-29T10:50:19;9.40;99.90
19522;DHT22;9905;52.126;5.596;2022-12-29T10:52:48;9.40;99.90
19522;DHT22;9905;52.126;5.596;2022-12-29T10:55:19;9.50;99.90
19522;DHT22;9905;52.126;5.596;2022-12-29T10:57:47;9.40;99.90
19522;DHT22;9905;52.126;5.596;2022-12-29T11:00:17;9.50;99.90
19522;DHT22;9905;52.126;5.596;2022-12-29T11:03:09;9.50;99.90
19522;DHT22;9905;52.126;5.596;2022-12-29T11:05:44;9.50;99.90
19522;DHT22;9905;52.126;5.596;2022-12-29T11:08:17;9.50;99.90
19522;DHT22;9905;52.126;5.596;2022-12-29T11:10:45;9.50;99.90
19522;DHT22;9905;52.126;5.596;2022-12-29T11:13:15;9.50;99.90
19522;DHT22;9905;52.126;5.596;2022-12-29T11:15:44;9.50;99.90
19522;DHT22;9905;52.126;5.596;2022-12-29T11:18:21;9.50;99.90
19522;DHT22;9905;52.126;5.596;2022-12-29T11:20:49;9.60;99.90
19522;DHT22;9905;52.126;5.596;2022-12-29T11:23:26;9.60;99.90
19522;DHT22;9905;52.126;5.596;2022-12-29T11:26:08;9.60;99.90
19522;DHT22;9905;52.126;5.596;2022-12-29T11:28:39;9.60;99.90
19522;DHT22;9905;52.126;5.596;2022-12-29T11:31:07;9.60;99.90
19522;DHT22;9905;52.126;5.596;2022-12-29T11:33:38;9.60;99.90
19522;DHT22;9905;52.126;5.596;2022-12-29T11:36:07;9.70;99.90
19522;DHT22;9905;52.126;5.596;2022-12-29T11:38:38;9.70;99.90
19522;DHT22;9905;52.126;5.596;2022-12-29T11:41:09;9.70;99.90
19522;DHT22;9905;52.126;5.596;2022-12-29T11:43:38;9.70;99.90
19522;DHT22;9905;52.126;5.596;2022-12-29T11:46:06;9.70;99.90
19522;DHT22;9905;52.126;5.596;2022-12-29T11:48:38;9.70;99.90
19522;DHT22;9905;52.126;5.596;2022-12-29T11:51:06;9.60;99.90
19522;DHT22;9905;52.126;5.596;2022-12-29T11:53:41;9.60;99.90
19522;DHT22;9905;52.126;5.596;2022-12-29T11:56:12;9.60;99.90
19522;DHT22;9905;52.126;5.596;2022-12-29T11:58:39;9.60;99.90
19522;DHT22;9905;52.126;5.596;2022-12-29T12:01:09;9.50;99.90
19522;DHT22;9905;52.126;5.596;2022-12-29T12:03:44;9.50;99.90
19522;DHT22;9905;52.126;5.596;2022-12-29T12:06:16;9.50;99.90
19522;DHT22;9905;52.126;5.596;2022-12-29T12:08:50;9.50;99.90
19522;DHT22;9905;52.126;5.596;2022-12-29T12:11:21;9.50;99.90
19522;DHT22;9905;52.126;5.596;2022-12-29T12:13:56;9.40;99.90
19522;DHT22;9905;52.126;5.596;2022-12-29T12:16:29;9.40;99.90
19522;DHT22;9905;52.126;5.596;2022-12-29T12:19:02;9.40;99.90
19522;DHT22;9905;52.126;5.596;2022-12-29T12:21:34;9.50;99.90
19522;DHT22;9905;52.126;5.596;2022-12-29T12:24:26;9.50;99.90
19522;DHT22;9905;52.126;5.596;2022-12-29T12:27:01;9.60;99.90
19522;DHT22;9905;52.126;5.596;2022-12-29T12:29:35;9.80;99.90
19522;DHT22;9905;52.126;5.596;2022-12-29T12:32:11;9.90;99.90
19522;DHT22;9905;52.126;5.596;2022-12-29T12:34:42;9.90;99.90
19522;DHT22;9905;52.126;5.596;2022-12-29T12:37:34;10.00;99.90
19522;DHT22;9905;52.126;5.596;2022-12-29T12:40:23;10.00;99.90
19522;DHT22;9905;52.126;5.596;2022-12-29T12:43:03;10.00;99.90
19522;DHT22;9905;52.126;5.596;2022-12-29T12:45:45;10.10;99.90
19522;DHT22;9905;52.126;5.596;2022-12-29T12:48:28;10.20;99.90
19522;DHT22;9905;52.126;5.596;2022-12-29T12:51:03;10.20;99.90
19522;DHT22;9905;52.126;5.596;2022-12-29T12:53:53;10.20;99.90
19522;DHT22;9905;52.126;5.596;2022-12-29T12:56:41;10.20;99.90
19522;DHT22;9905;52.126;5.596;2022-12-29T12:59:17;10.20;99.90
19522;DHT22;9905;52.126;5.596;2022-12-29T13:01:56;10.20;99.90
19522;DHT22;9905;52.126;5.596;2022-12-29T13:04:42;10.20;99.90
19522;DHT22;9905;52.126;5.596;2022-12-29T13:07:20;10.20;99.90
19522;DHT22;9905;52.126;5.596;2022-12-29T13:10:22;10.20;99.90
19522;DHT22;9905;52.126;5.596;2022-12-29T13:13:00;10.20;99.90
19522;DHT22;9905;52.126;5.596;2022-12-29T13:15:41;10.10;99.90
19522;DHT22;9905;52.126;5.596;2022-12-29T13:18:18;10.10;99.90
19522;DHT22;9905;52.126;5.596;2022-12-29T13:20:53;10.10;99.90
19522;DHT22;9905;52.126;5.596;2022-12-29T13:23:26;10.10;99.90
19522;DHT22;9905;52.126;5.596;2022-12-29T13:26:03;10.10;99.90
19522;DHT22;9905;52.126;5.596;2022-12-29T13:28:41;10.10;99.90
19522;DHT22;9905;52.126;5.596;2022-12-29T13:31:16;10.10;99.90
19522;DHT22;9905;52.126;5.596;2022-12-29T13:33:49;10.10;99.90
19522;DHT22;9905;52.126;5.596;2022-12-29T13:36:24;10.10;99.90
19522;DHT22;9905;52.126;5.596;2022-12-29T13:38:59;10.10;99.90
19522;DHT22;9905;52.126;5.596;2022-12-29T13:41:30;10.10;99.90
19522;DHT22;9905;52.126;5.596;2022-12-29T13:44:00;10.10;99.90
19522;DHT22;9905;52.126;5.596;2022-12-29T13:46:33;10.00;99.90
19522;DHT22;9905;52.126;5.596;2022-12-29T13:49:02;9.90;99.90
19522;DHT22;9905;52.126;5.596;2022-12-29T13:51:32;9.90;99.90
19522;DHT22;9905;52.126;5.596;2022-12-29T13:54:11;9.90;99.90
19522;DHT22;9905;52.126;5.596;2022-12-29T13:56:45;9.90;99.90
19522;DHT22;9905;52.126;5.596;2022-12-29T13:59:22;9.80;99.90
19522;DHT22;9905;52.126;5.596;2022-12-29T14:01:55;9.80;99.90
19522;DHT22;9905;52.126;5.596;2022-12-29T14:04:25;9.70;99.90
19522;DHT22;9905;52.126;5.596;2022-12-29T14:07:01;9.70;99.90
19522;DHT22;9905;52.126;5.596;2022-12-29T14:09:42;9.80;99.90
19522;DHT22;9905;52.126;5.596;2022-12-29T14:12:34;9.70;99.90
19522;DHT22;9905;52.126;5.596;2022-12-29T14:15:05;9.70;99.90
19522;DHT22;9905;52.126;5.596;2022-12-29T14:17:33;9.70;99.90
19522;DHT22;9905;52.126;5.596;2022-12-29T14:20:00;9.70;99.90
19522;DHT22;9905;52.126;5.596;2022-12-29T14:22:28;9.70;99.90
19522;DHT22;9905;52.126;5.596;2022-12-29T14:24:55;9.70;99.90
19522;DHT22;9905;52.126;5.596;2022-12-29T14:27:44;9.80;99.90
19522;DHT22;9905;52.126;5.596;2022-12-29T14:33:27;9.70;99.90
19522;DHT22;9905;52.126;5.596;2022-12-29T14:35:55;9.60;99.90
19522;DHT22;9905;52.126;5.596;2022-12-29T14:38:29;9.60;99.90
19522;DHT22;9905;52.126;5.596;2022-12-29T14:41:16;9.50;99.90
19522;DHT22;9905;52.126;5.596;2022-12-29T14:43:53;9.50;99.90
19522;DHT22;9905;52.126;5.596;2022-12-29T14:46:21;9.40;99.90
19522;DHT22;9905;52.126;5.596;2022-12-29T14:48:55;9.30;99.90
19522;DHT22;9905;52.126;5.596;2022-12-29T14:51:31;9.30;99.90
19522;DHT22;9905;52.126;5.596;2022-12-29T14:53:58;9.20;99.90
19522;DHT22;9905;52.126;5.596;2022-12-29T14:56:27;9.10;99.90
19522;DHT22;9905;52.126;5.596;2022-12-29T14:58:56;9.10;99.90
19522;DHT22;9905;52.126;5.596;2022-12-29T15:01:28;9.10;99.90
19522;DHT22;9905;52.126;5.596;2022-12-29T15:04:03;9.00;99.90
19522;DHT22;9905;52.126;5.596;2022-12-29T15:06:31;9.00;99.90
19522;DHT22;9905;52.126;5.596;2022-12-29T15:09:06;9.00;99.90
19522;DHT22;9905;52.126;5.596;2022-12-29T15:11:48;9.00;99.90
19522;DHT22;9905;52.126;5.596;2022-12-29T15:14:31;9.00;99.90
19522;DHT22;9905;52.126;5.596;2022-12-29T15:16:58;9.00;99.90
19522;DHT22;9905;52.126;5.596;2022-12-29T15:19:27;9.00;99.90
19522;DHT22;9905;52.126;5.596;2022-12-29T15:21:54;9.00;99.90
19522;DHT22;9905;52.126;5.596;2022-12-29T15:24:22;9.10;99.90
19522;DHT22;9905;52.126;5.596;2022-12-29T15:26:51;9.10;99.90
19522;DHT22;9905;52.126;5.596;2022-12-29T15:29:39;9.00;99.90
19522;DHT22;9905;52.126;5.596;2022-12-29T15:32:18;9.10;99.90
19522;DHT22;9905;52.126;5.596;2022-12-29T15:34:48;9.10;99.90
19522;DHT22;9905;52.126;5.596;2022-12-29T15:37:19;9.10;99.90
19522;DHT22;9905;52.126;5.596;2022-12-29T15:39:46;9.10;99.90
19522;DHT22;9905;52.126;5.596;2022-12-29T15:42:27;9.10;99.90
19522;DHT22;9905;52.126;5.596;2022-12-29T15:44:57;9.10;99.90
19522;DHT22;9905;52.126;5.596;2022-12-29T15:47:26;9.10;99.90
19522;DHT22;9905;52.126;5.596;2022-12-29T15:50:03;9.20;99.90
19522;DHT22;9905;52.126;5.596;2022-12-29T15:52:31;9.10;99.90
19522;DHT22;9905;52.126;5.596;2022-12-29T15:54:59;9.10;99.90
19522;DHT22;9905;52.126;5.596;2022-12-29T15:57:28;9.20;99.90
19522;DHT22;9905;52.126;5.596;2022-12-29T15:59:55;9.20;99.90
19522;DHT22;9905;52.126;5.596;2022-12-29T16:02:23;9.20;99.90
19522;DHT22;9905;52.126;5.596;2022-12-29T16:04:51;9.20;99.90
19522;DHT22;9905;52.126;5.596;2022-12-29T16:07:28;9.20;99.90
19522;DHT22;9905;52.126;5.596;2022-12-29T16:09:56;9.20;99.90
19522;DHT22;9905;52.126;5.596;2022-12-29T16:12:26;9.20;99.90
19522;DHT22;9905;52.126;5.596;2022-12-29T16:14:55;9.20;99.90
19522;DHT22;9905;52.126;5.596;2022-12-29T16:17:25;9.30;99.90
19522;DHT22;9905;52.126;5.596;2022-12-29T16:19:54;9.20;99.90
19522;DHT22;9905;52.126;5.596;2022-12-29T16:22:28;9.20;99.90
19522;DHT22;9905;52.126;5.596;2022-12-29T16:24:56;9.20;99.90